Time;durP1;ratioP1;P1;durP2;ratioP2;P2;SDS_P1;SDS_P2;PMS_P1;PMS_P2;Temp;Humidity;BMP_temperature;BMP_pressure;BME280_temperature;BME280_humidity;BME280_pressure;Samples;Min_cycle;Max_cycle;Signal;HPM_P1;HPM_P2
2023/04/22 00:01:07;;;;;;;0.40;0.40;;;10.80;99.90;;;;;;5070164;28;20192;-62
2023/04/22 00:03:34;;;;;;;0.30;0.30;;;10.80;99.90;;;;;;5067890;28;20265;-62
2023/04/22 00:06:01;;;;;;;0.40;0.40;;;10.90;99.90;;;;;;5054284;28;20578;-62
2023/04/22 00:08:29;;;;;;;0.40;0.40;;;10.90;99.90;;;;;;5056673;28;20195;-62
2023/04/22 00:10:56;;;;;;;0.40;0.40;;;10.80;99.90;;;;;;5064487;28;20266;-63
2023/04/22 00:13:23;;;;;;;0.37;0.37;;;10.80;99.90;;;;;;5068052;28;20198;-63
2023/04/22 00:15:50;;;;;;;0.30;0.30;;;10.80;99.90;;;;;;5066886;28;20733;-61
2023/04/22 00:18:17;;;;;;;0.40;0.40;;;10.80;99.90;;;;;;5067097;28;20248;-62
2023/04/22 00:20:44;;;;;;;0.30;0.30;;;10.70;99.90;;;;;;5065145;28;20190;-62
2023/04/22 00:23:12;;;;;;;0.30;0.30;;;10.70;99.90;;;;;;5074190;28;20219;-63
2023/04/22 00:25:39;;;;;;;0.40;0.40;;;10.70;99.90;;;;;;5060491;28;20189;-64
2023/04/22 00:28:06;;;;;;;0.40;0.40;;;10.70;99.90;;;;;;5044591;28;20227;-64
2023/04/22 00:30:34;;;;;;;0.30;0.30;;;10.60;99.90;;;;;;5054225;28;20199;-63
2023/04/22 00:33:01;;;;;;;0.40;0.40;;;10.60;99.90;;;;;;5049787;28;20199;-64
2023/04/22 00:35:29;;;;;;;0.70;0.70;;;10.50;99.90;;;;;;5047013;28;20207;-64
2023/04/22 00:37:56;;;;;;;0.30;0.30;;;10.60;99.90;;;;;;5066590;28;20215;-63
2023/04/22 00:40:23;;;;;;;0.40;0.40;;;10.60;99.90;;;;;;5072658;28;20206;-63
2023/04/22 00:42:50;;;;;;;0.30;0.30;;;10.60;99.90;;;;;;5050525;28;20209;-63
2023/04/22 00:45:18;;;;;;;0.50;0.50;;;10.60;99.90;;;;;;5058790;28;20694;-63
2023/04/22 00:47:46;;;;;;;0.30;0.30;;;10.60;99.90;;;;;;5067068;28;20187;-63
2023/04/22 00:50:14;;;;;;;0.40;0.40;;;10.60;99.90;;;;;;5062390;28;20562;-61
2023/04/22 00:52:41;;;;;;;0.40;0.40;;;10.60;99.90;;;;;;5068371;28;20191;-62
2023/04/22 00:55:09;;;;;;;0.40;0.40;;;10.60;99.90;;;;;;5065261;28;20202;-61
2023/04/22 00:57:37;;;;;;;0.30;0.30;;;10.50;99.90;;;;;;5054450;28;20272;-62
2023/04/22 01:00:10;;;;;;;0.40;0.40;;;10.60;99.90;;;;;;5066609;28;20210;-61
2023/04/22 01:02:38;;;;;;;0.30;0.30;;;10.60;99.90;;;;;;5048926;28;20253;-62
2023/04/22 01:05:08;;;;;;;0.33;0.33;;;10.50;99.90;;;;;;5042128;22;20741;-60
2023/04/22 01:07:35;;;;;;;0.40;0.40;;;10.50;99.90;;;;;;5011614;28;20196;-61
2023/04/22 01:10:03;;;;;;;0.30;0.30;;;10.40;99.90;;;;;;5010659;28;20199;-61
2023/04/22 01:12:30;;;;;;;0.37;0.37;;;10.40;99.90;;;;;;5022657;28;20299;-61
2023/04/22 01:14:57;;;;;;;0.30;0.30;;;10.40;99.90;;;;;;5029556;28;20193;-61
2023/04/22 01:17:24;;;;;;;0.30;0.30;;;10.40;99.90;;;;;;5007914;28;20243;-61
2023/04/22 01:19:52;;;;;;;0.37;0.37;;;10.40;99.90;;;;;;5024515;28;20227;-61
2023/04/22 01:22:21;;;;;;;0.30;0.30;;;10.40;99.90;;;;;;5006628;28;20307;-61
2023/04/22 01:24:48;;;;;;;0.30;0.30;;;10.40;99.90;;;;;;5020234;28;20235;-61
2023/04/22 01:27:15;;;;;;;0.40;0.40;;;10.40;99.90;;;;;;5030609;28;20184;-61
2023/04/22 01:29:42;;;;;;;0.40;0.40;;;10.30;99.90;;;;;;5024732;28;20238;-61
2023/04/22 01:32:10;;;;;;;0.30;0.30;;;10.20;99.90;;;;;;5023181;28;20614;-60
2023/04/22 01:34:37;;;;;;;0.40;0.40;;;10.20;99.90;;;;;;5022924;28;20191;-61
2023/04/22 01:37:05;;;;;;;0.40;0.40;;;10.30;99.90;;;;;;5009364;28;20279;-61
2023/04/22 01:39:33;;;;;;;0.40;0.40;;;10.20;99.90;;;;;;5015099;28;20917;-61
2023/04/22 01:42:02;;;;;;;0.30;0.30;;;10.20;99.90;;;;;;5027810;28;20182;-61
2023/04/22 01:44:29;;;;;;;0.40;0.40;;;10.10;99.90;;;;;;5010906;28;20283;-61
2023/04/22 01:46:56;;;;;;;0.30;0.30;;;10.10;99.90;;;;;;5009881;28;20197;-60
2023/04/22 01:49:23;;;;;;;0.30;0.30;;;10.20;99.90;;;;;;5024988;28;20200;-61
2023/04/22 01:51:50;;;;;;;0.37;0.37;;;10.30;99.90;;;;;;5030693;28;20660;-61
2023/04/22 01:54:19;;;;;;;0.40;0.40;;;10.30;99.90;;;;;;5001803;28;20197;-61
2023/04/22 01:56:53;;;;;;;0.30;0.30;;;10.40;99.90;;;;;;5017760;28;20549;-60
2023/04/22 01:59:21;;;;;;;0.30;0.30;;;10.40;99.90;;;;;;5002238;28;20212;-60
2023/04/22 02:01:49;;;;;;;0.40;0.40;;;10.30;99.90;;;;;;5025533;28;20216;-60
2023/04/22 02:04:17;;;;;;;0.30;0.30;;;10.30;99.90;;;;;;5024487;28;20646;-60
2023/04/22 02:06:44;;;;;;;0.40;0.40;;;10.20;99.90;;;;;;5003761;28;20311;-60
2023/04/22 02:09:11;;;;;;;0.30;0.30;;;10.30;99.90;;;;;;5024958;28;20311;-60
2023/04/22 02:11:38;;;;;;;0.37;0.37;;;10.30;99.90;;;;;;5006728;28;20797;-60
2023/04/22 02:14:05;;;;;;;0.40;0.40;;;10.30;99.90;;;;;;5020239;28;20822;-59
2023/04/22 02:16:32;;;;;;;0.40;0.40;;;10.30;99.90;;;;;;4993301;28;20254;-58
2023/04/22 02:18:59;;;;;;;0.40;0.40;;;10.30;99.90;;;;;;5025113;28;20212;-60
2023/04/22 02:21:31;;;;;;;0.40;0.40;;;10.30;99.90;;;;;;5029116;28;20192;-59
2023/04/22 02:23:58;;;;;;;0.40;0.40;;;10.30;99.90;;;;;;5024502;28;20184;-59
2023/04/22 02:26:27;;;;;;;0.30;0.30;;;10.30;99.90;;;;;;5026358;28;20189;-59
2023/04/22 02:28:54;;;;;;;0.40;0.40;;;10.20;99.90;;;;;;5018122;28;20577;-59
2023/04/22 02:31:21;;;;;;;0.20;0.20;;;10.20;99.90;;;;;;5026315;28;20196;-60
2023/04/22 02:33:48;;;;;;;0.33;0.33;;;10.20;99.90;;;;;;5003819;28;20212;-59
2023/04/22 02:36:15;;;;;;;0.40;0.40;;;10.30;99.90;;;;;;5035151;28;20226;-59
2023/04/22 02:38:42;;;;;;;0.40;0.40;;;10.20;99.90;;;;;;5031640;28;20289;-60
2023/04/22 02:41:10;;;;;;;0.40;0.40;;;10.20;99.90;;;;;;5014465;28;20205;-59
2023/04/22 02:43:37;;;;;;;0.40;0.40;;;10.10;99.90;;;;;;5014300;28;20188;-59
2023/04/22 02:46:04;;;;;;;0.30;0.30;;;9.90;99.90;;;;;;5036138;28;20711;-58
2023/04/22 02:48:31;;;;;;;0.40;0.40;;;9.90;99.90;;;;;;5003021;28;20201;-58
2023/04/22 02:50:57;;;;;;;0.40;0.40;;;9.80;99.90;;;;;;5005938;28;20228;-60
2023/04/22 02:53:24;;;;;;;0.40;0.40;;;9.90;99.90;;;;;;5014107;28;20208;-61
2023/04/22 02:55:54;;;;;;;0.40;0.40;;;10.00;99.90;;;;;;5009373;28;20200;-59
2023/04/22 02:58:21;;;;;;;0.40;0.40;;;10.00;99.90;;;;;;5029499;28;20298;-59
2023/04/22 03:00:48;;;;;;;0.40;0.40;;;9.90;99.90;;;;;;5032415;28;20239;-59
2023/04/22 03:03:15;;;;;;;0.40;0.40;;;9.80;99.90;;;;;;5011271;28;20216;-61
2023/04/22 03:05:43;;;;;;;0.40;0.40;;;9.80;99.90;;;;;;5034678;28;20325;-59
2023/04/22 03:08:10;;;;;;;0.30;0.30;;;9.60;99.90;;;;;;5022346;28;20620;-60
2023/04/22 03:10:37;;;;;;;0.40;0.40;;;9.60;99.90;;;;;;5011898;28;20208;-58
2023/04/22 03:13:04;;;;;;;0.30;0.30;;;9.90;99.90;;;;;;5012338;28;20251;-59
2023/04/22 03:15:30;;;;;;;0.30;0.30;;;9.90;99.90;;;;;;5025793;28;20249;-60
2023/04/22 03:17:58;;;;;;;0.30;0.30;;;9.90;99.90;;;;;;5027316;28;20659;-60
2023/04/22 03:20:25;;;;;;;0.30;0.30;;;10.00;99.90;;;;;;5014745;28;20250;-60
2023/04/22 03:22:53;;;;;;;0.30;0.30;;;10.00;99.90;;;;;;5016183;28;20204;-59
2023/04/22 03:25:20;;;;;;;0.30;0.30;;;10.10;99.90;;;;;;5031091;28;20198;-60
2023/04/22 03:27:53;;;;;;;0.40;0.40;;;9.90;99.90;;;;;;5013558;28;20211;-59
2023/04/22 03:30:20;;;;;;;0.30;0.30;;;9.80;99.90;;;;;;5013694;28;20223;-59
2023/04/22 03:32:47;;;;;;;0.40;0.40;;;9.80;99.90;;;;;;5015899;28;20234;-59
2023/04/22 03:35:22;;;;;;;0.40;0.40;;;9.90;99.90;;;;;;5017205;28;20266;-60
2023/04/22 03:37:51;;;;;;;0.40;0.40;;;9.80;99.90;;;;;;5007898;28;20663;-58
2023/04/22 03:40:23;;;;;;;0.60;0.60;;;9.80;99.90;;;;;;5029515;28;20242;-58
2023/04/22 03:42:50;;;;;;;0.40;0.40;;;9.60;99.90;;;;;;5028934;28;20686;-65
2023/04/22 03:45:19;;;;;;;0.73;0.73;;;9.60;99.90;;;;;;5026945;28;20218;-59
2023/04/22 03:47:55;;;;;;;0.40;0.40;;;9.60;99.90;;;;;;4991742;28;20196;-60
2023/04/22 03:50:29;;;;;;;0.40;0.40;;;9.70;99.90;;;;;;5017067;28;20195;-59
2023/04/22 03:52:58;;;;;;;0.40;0.40;;;9.70;99.90;;;;;;4985118;28;20758;-58
2023/04/22 03:55:25;;;;;;;0.40;0.40;;;9.70;99.90;;;;;;5013367;28;20199;-59
2023/04/22 03:57:53;;;;;;;0.37;0.37;;;9.60;99.90;;;;;;4994083;28;20307;-59
2023/04/22 04:00:20;;;;;;;0.40;0.40;;;9.60;99.90;;;;;;5011035;28;20326;-59
2023/04/22 04:02:57;;;;;;;0.40;0.40;;;9.60;99.90;;;;;;5025495;28;20243;-59
2023/04/22 04:05:26;;;;;;;0.30;0.30;;;9.60;99.90;;;;;;5014458;28;20232;-58
2023/04/22 04:07:53;;;;;;;0.30;0.30;;;9.70;99.90;;;;;;5027928;28;20192;-59
2023/04/22 04:10:22;;;;;;;0.40;0.40;;;9.80;99.90;;;;;;5010511;28;20557;-59
2023/04/22 04:12:50;;;;;;;0.40;0.40;;;9.80;99.90;;;;;;5011623;28;20668;-58
2023/04/22 04:15:20;;;;;;;0.40;0.40;;;9.80;99.90;;;;;;5010787;28;20246;-58
2023/04/22 04:17:49;;;;;;;0.40;0.40;;;10.00;99.90;;;;;;5005144;28;20254;-59
2023/04/22 04:20:18;;;;;;;0.30;0.30;;;10.00;99.90;;;;;;5017653;28;20215;-58
2023/04/22 04:22:45;;;;;;;0.40;0.40;;;10.00;99.90;;;;;;5016516;28;20297;-58
2023/04/22 04:25:13;;;;;;;0.33;0.33;;;9.90;99.90;;;;;;5015203;28;20219;-59
2023/04/22 04:27:44;;;;;;;0.40;0.40;;;10.00;99.90;;;;;;5017411;28;20189;-58
2023/04/22 04:30:13;;;;;;;0.30;0.30;;;10.00;99.90;;;;;;5015410;28;20290;-59
2023/04/22 04:32:44;;;;;;;0.30;0.30;;;10.10;99.90;;;;;;5029071;28;20242;-59
2023/04/22 04:35:17;;;;;;;0.40;0.40;;;10.20;99.90;;;;;;5015041;28;20746;-58
2023/04/22 04:37:52;;;;;;;0.30;0.30;;;10.20;99.90;;;;;;5025561;28;20215;-58
2023/04/22 04:40:20;;;;;;;0.40;0.40;;;10.20;99.90;;;;;;5004734;28;20210;-59
2023/04/22 04:43:03;;;;;;;0.30;0.30;;;10.20;99.90;;;;;;4995691;28;20188;-60
2023/04/22 04:45:35;;;;;;;0.40;0.40;;;10.20;99.90;;;;;;5008458;28;20191;-61
2023/04/22 04:48:05;;;;;;;0.30;0.30;;;10.30;99.90;;;;;;5011036;28;20299;-60
2023/04/22 04:50:35;;;;;;;0.40;0.40;;;10.30;99.90;;;;;;4995952;28;20192;-60
2023/04/22 04:53:02;;;;;;;0.37;0.37;;;10.30;99.90;;;;;;5009000;28;20632;-61
2023/04/22 04:55:37;;;;;;;0.30;0.30;;;10.30;99.90;;;;;;5015951;28;20687;-61
2023/04/22 04:58:09;;;;;;;0.30;0.30;;;10.40;99.90;;;;;;5012133;28;20192;-58
2023/04/22 05:00:36;;;;;;;0.40;0.40;;;10.40;99.90;;;;;;5018214;28;20600;-59
2023/04/22 05:03:03;;;;;;;0.30;0.30;;;10.40;99.90;;;;;;5010328;28;20663;-59
2023/04/22 05:05:31;;;;;;;0.30;0.30;;;10.50;99.90;;;;;;5025559;28;20196;-59
2023/04/22 05:07:58;;;;;;;0.30;0.30;;;10.50;99.90;;;;;;5010824;28;20215;-58
2023/04/22 05:10:26;;;;;;;0.30;0.30;;;10.60;99.90;;;;;;5023071;28;20204;-58
2023/04/22 05:12:54;;;;;;;0.30;0.30;;;10.70;99.90;;;;;;5009233;28;21466;-59
2023/04/22 05:15:23;;;;;;;0.40;0.40;;;10.80;99.90;;;;;;5010085;28;20644;-58
2023/04/22 05:17:50;;;;;;;0.30;0.30;;;10.90;99.90;;;;;;5017820;28;20255;-59
2023/04/22 05:20:17;;;;;;;0.30;0.30;;;10.80;99.90;;;;;;5008636;28;20214;-60
2023/04/22 05:22:44;;;;;;;0.37;0.37;;;10.80;99.90;;;;;;5010764;28;20191;-59
2023/04/22 05:25:13;;;;;;;0.40;0.40;;;10.80;99.90;;;;;;5009044;28;20600;-59
2023/04/22 05:27:49;;;;;;;0.30;0.30;;;10.90;99.90;;;;;;5009834;28;20306;-59
2023/04/22 05:30:18;;;;;;;0.37;0.37;;;10.90;99.90;;;;;;5010378;28;20199;-61
2023/04/22 05:32:45;;;;;;;0.37;0.37;;;11.00;99.90;;;;;;5013629;28;20204;-60
2023/04/22 05:35:12;;;;;;;0.40;0.40;;;11.00;99.90;;;;;;5025590;28;20266;-61
2023/04/22 05:37:40;;;;;;;0.33;0.33;;;11.10;99.90;;;;;;5020990;28;20200;-60
2023/04/22 05:40:08;;;;;;;0.50;0.50;;;11.10;99.90;;;;;;4993076;28;20249;-61
2023/04/22 05:42:34;;;;;;;0.40;0.40;;;11.10;99.90;;;;;;5009246;28;20663;-60
2023/04/22 05:45:02;;;;;;;0.40;0.40;;;11.30;99.90;;;;;;5017540;28;20215;-60
2023/04/22 05:47:29;;;;;;;0.30;0.30;;;11.60;99.90;;;;;;5025302;28;20193;-61
2023/04/22 05:49:57;;;;;;;0.30;0.30;;;12.00;99.90;;;;;;5018316;28;20210;-61
2023/04/22 05:52:35;;;;;;;0.30;0.30;;;12.10;99.90;;;;;;5010136;28;20208;-61
2023/04/22 05:55:11;;;;;;;0.30;0.30;;;12.10;99.90;;;;;;5025475;28;20289;-60
2023/04/22 05:57:38;;;;;;;0.30;0.30;;;12.00;99.90;;;;;;5002902;28;20193;-60
2023/04/22 06:00:13;;;;;;;0.30;0.30;;;12.00;99.90;;;;;;5028054;28;20613;-61
2023/04/22 06:02:43;;;;;;;0.30;0.30;;;12.10;99.90;;;;;;5007185;28;20608;-61
2023/04/22 06:05:10;;;;;;;0.47;0.47;;;12.00;99.90;;;;;;5020995;28;20224;-60
2023/04/22 06:07:39;;;;;;;0.40;0.40;;;12.00;99.90;;;;;;5008831;28;20193;-60
2023/04/22 06:10:07;;;;;;;0.30;0.30;;;12.00;99.90;;;;;;5011787;28;20220;-60
2023/04/22 06:12:34;;;;;;;0.30;0.30;;;12.10;99.90;;;;;;5008283;28;20668;-60
2023/04/22 06:15:03;;;;;;;0.40;0.40;;;12.10;99.90;;;;;;5025488;28;20663;-61
2023/04/22 06:17:30;;;;;;;0.40;0.40;;;12.00;99.90;;;;;;5010892;28;20184;-60
2023/04/22 06:19:57;;;;;;;0.40;0.40;;;12.00;99.90;;;;;;5012647;28;20219;-60
2023/04/22 06:22:24;;;;;;;0.20;0.20;;;12.00;99.90;;;;;;5001094;28;20699;-61
2023/04/22 06:24:51;;;;;;;0.33;0.33;;;12.10;99.90;;;;;;5005919;28;20197;-60
2023/04/22 06:27:18;;;;;;;0.30;0.30;;;12.10;99.90;;;;;;5025272;28;20189;-60
2023/04/22 06:29:45;;;;;;;0.40;0.40;;;12.20;99.90;;;;;;5006957;28;20197;-64
2023/04/22 06:32:12;;;;;;;0.40;0.40;;;12.30;99.90;;;;;;5009983;28;20196;-60
2023/04/22 06:34:41;;;;;;;0.30;0.30;;;12.40;99.90;;;;;;5014048;28;20232;-60
2023/04/22 06:37:08;;;;;;;0.40;0.40;;;12.60;99.90;;;;;;5033350;28;20196;-60
2023/04/22 06:39:35;;;;;;;0.53;0.53;;;12.80;99.90;;;;;;5007563;28;20216;-59
2023/04/22 06:42:11;;;;;;;0.40;0.40;;;13.00;99.90;;;;;;5010435;28;20207;-59
2023/04/22 06:45:03;;;;;;;0.30;0.30;;;13.10;99.90;;;;;;4998653;28;20215;-59
2023/04/22 06:47:53;;;;;;;0.30;0.30;;;13.40;99.90;;;;;;5019690;28;20208;-60
2023/04/22 06:50:23;;;;;;;0.37;0.37;;;13.90;99.90;;;;;;5006695;28;20196;-60
2023/04/22 06:52:54;;;;;;;0.30;0.30;;;14.20;99.90;;;;;;5008507;28;20204;-60
2023/04/22 06:55:23;;;;;;;0.30;0.30;;;14.60;99.90;;;;;;5000194;28;20222;-58
2023/04/22 06:57:50;;;;;;;0.30;0.30;;;15.00;99.90;;;;;;4995176;28;20222;-59
2023/04/22 07:00:17;;;;;;;0.30;0.30;;;15.50;99.90;;;;;;5030741;28;20627;-59
2023/04/22 07:02:45;;;;;;;0.20;0.20;;;15.80;1.00;;;;;;5007264;28;20192;-61
2023/04/22 07:05:14;;;;;;;0.20;0.20;;;16.20;1.00;;;;;;5025784;28;20251;-60
2023/04/22 07:07:42;;;;;;;0.20;0.20;;;16.20;47.80;;;;;;5009110;28;20275;-60
2023/04/22 07:10:15;;;;;;;0.20;0.20;;;16.50;1.00;;;;;;5008904;28;20192;-60
2023/04/22 07:12:54;;;;;;;0.20;0.20;;;16.90;1.00;;;;;;5005888;28;20232;-60
2023/04/22 07:15:21;;;;;;;0.20;0.20;;;17.10;1.00;;;;;;5007635;28;20267;-60
2023/04/22 07:17:48;;;;;;;0.20;0.20;;;17.20;1.00;;;;;;5026499;28;20220;-60
2023/04/22 07:20:15;;;;;;;0.20;0.20;;;17.00;1.00;;;;;;5030037;28;20211;-63
2023/04/22 07:22:42;;;;;;;0.20;0.20;;;17.20;99.90;;;;;;5031891;28;20195;-60
2023/04/22 07:25:09;;;;;;;0.20;0.20;;;17.30;99.90;;;;;;5031014;28;20192;-60
2023/04/22 07:27:37;;;;;;;0.10;0.10;;;18.00;79.10;;;;;;5035909;28;20719;-63
2023/04/22 07:30:06;;;;;;;0.20;0.20;;;19.50;35.10;;;;;;5017658;28;20223;-60
2023/04/22 07:32:33;;;;;;;0.10;0.10;;;20.30;7.00;;;;;;5014551;28;20200;-64
2023/04/22 07:35:00;;;;;;;0.20;0.20;;;20.60;1.00;;;;;;5005082;28;20224;-60
2023/04/22 07:37:27;;;;;;;0.10;0.10;;;21.90;1.00;;;;;;5029524;28;20283;-61
2023/04/22 07:39:54;;;;;;;0.10;0.10;;;23.70;1.00;;;;;;5027010;28;20542;-61
2023/04/22 07:42:21;;;;;;;0.10;0.10;;;24.90;1.00;;;;;;5026391;28;20196;-62
2023/04/22 07:44:48;;;;;;;0.10;0.10;;;23.80;1.00;;;;;;5029397;28;20201;-61
2023/04/22 07:47:15;;;;;;;0.20;0.20;;;23.10;1.00;;;;;;5011581;28;20189;-60
2023/04/22 07:49:44;;;;;;;0.20;0.20;;;20.40;1.00;;;;;;5024810;28;20944;-60
2023/04/22 07:52:11;;;;;;;0.20;0.20;;;19.70;1.00;;;;;;5029156;28;20341;-60
2023/04/22 07:54:38;;;;;;;0.10;0.10;;;19.70;1.00;;;;;;5020419;28;20220;-60
2023/04/22 07:57:05;;;;;;;0.10;0.10;;;22.30;1.00;;;;;;5028852;28;20193;-60
2023/04/22 07:59:32;;;;;;;0.20;0.20;;;26.00;1.00;;;;;;5026367;28;20208;-61
2023/04/22 08:01:59;;;;;;;0.10;0.10;;;25.90;1.00;;;;;;5032993;28;20599;-61
2023/04/22 08:04:26;;;;;;;0.10;0.10;;;21.90;1.00;;;;;;5029245;28;20240;-60
2023/04/22 08:06:55;;;;;;;0.20;0.20;;;20.80;1.00;;;;;;5026409;28;20189;-61
2023/04/22 08:09:22;;;;;;;0.20;0.20;;;20.30;1.00;;;;;;5027374;28;20220;-60
2023/04/22 08:11:51;;;;;;;0.20;0.20;;;21.00;1.00;;;;;;5028119;28;20789;-60
2023/04/22 08:14:18;;;;;;;0.20;0.20;;;24.00;1.00;;;;;;5008836;28;20748;-60
2023/04/22 08:16:45;;;;;;;0.10;0.10;;;22.70;1.00;;;;;;5030032;28;20207;-60
2023/04/22 08:19:12;;;;;;;0.20;0.20;;;24.10;1.00;;;;;;5025894;28;20230;-60
2023/04/22 08:21:39;;;;;;;0.20;0.20;;;24.80;1.00;;;;;;5027577;28;20211;-61
2023/04/22 08:24:05;;;;;;;0.20;0.20;;;22.00;1.00;;;;;;5020979;28;20700;-59
2023/04/22 08:26:33;;;;;;;0.20;0.20;;;22.10;1.00;;;;;;5027903;28;20314;-60
2023/04/22 08:29:00;;;;;;;0.20;0.20;;;22.40;1.00;;;;;;5026500;28;20216;-60
2023/04/22 08:31:27;;;;;;;0.20;0.20;;;21.50;1.00;;;;;;5025407;28;20252;-61
2023/04/22 08:33:54;;;;;;;0.20;0.20;;;23.20;1.00;;;;;;5027247;28;20295;-61
2023/04/22 08:36:24;;;;;;;0.20;0.20;;;25.90;1.00;;;;;;5023714;28;20266;-62
2023/04/22 08:38:51;;;;;;;0.10;0.10;;;28.40;1.00;;;;;;5024218;28;20246;-61
2023/04/22 08:41:20;;;;;;;0.13;0.13;;;30.60;1.00;;;;;;5025485;28;20212;-60
2023/04/22 08:43:48;;;;;;;0.10;0.10;;;30.30;1.00;;;;;;5014844;28;20224;-60
2023/04/22 08:46:18;;;;;;;0.20;0.20;;;28.80;1.00;;;;;;5017813;28;20197;-61
2023/04/22 08:48:49;;;;;;;0.20;0.20;;;27.90;1.00;;;;;;5022418;28;20270;-59
2023/04/22 08:51:17;;;;;;;0.10;0.10;;;28.70;1.00;;;;;;5020520;28;20244;-59
2023/04/22 08:53:44;;;;;;;0.20;0.20;;;29.30;1.00;;;;;;5028897;28;20203;-59
2023/04/22 08:56:15;;;;;;;0.20;0.20;;;27.30;1.00;;;;;;5022739;28;20196;-60
2023/04/22 08:58:42;;;;;;;0.17;0.17;;;27.00;1.00;;;;;;5023968;28;20659;-61
2023/04/22 09:01:10;;;;;;;0.20;0.20;;;26.10;1.00;;;;;;5026557;28;20302;-66
2023/04/22 09:03:39;;;;;;;0.20;0.20;;;25.30;1.00;;;;;;5001248;28;20228;-61
2023/04/22 09:06:09;;;;;;;0.15;0.15;;;24.40;1.00;;;;;;5004371;28;20189;-58
2023/04/22 09:08:37;;;;;;;0.20;0.20;;;23.90;1.00;;;;;;5023513;28;20188;-59
2023/04/22 09:11:07;;;;;;;0.20;0.20;;;25.10;1.00;;;;;;5023219;28;20192;-60
2023/04/22 09:13:34;;;;;;;0.10;0.10;;;25.00;1.00;;;;;;5021861;28;20296;-59
2023/04/22 09:16:01;;;;;;;0.15;0.15;;;24.90;1.00;;;;;;5020284;28;20206;-59
2023/04/22 09:18:28;;;;;;;0.30;0.30;;;24.50;1.00;;;;;;5026668;28;20277;-61
2023/04/22 09:20:56;;;;;;;0.20;0.20;;;26.30;1.00;;;;;;5023093;28;20209;-59
2023/04/22 09:23:23;;;;;;;0.20;0.20;;;25.40;1.00;;;;;;5008212;28;20262;-62
2023/04/22 09:25:50;;;;;;;0.63;0.63;;;25.10;1.00;;;;;;5027400;28;20291;-59
2023/04/22 09:28:19;;;;;;;2.42;1.65;;;24.80;1.00;;;;;;5024014;28;20185;-59
2023/04/22 09:30:47;;;;;;;3.45;2.00;;;24.10;1.00;;;;;;5023193;28;20287;-64
2023/04/22 09:33:16;;;;;;;3.75;1.70;;;26.00;1.00;;;;;;4997276;28;20196;-59
2023/04/22 09:35:43;;;;;;;3.13;1.58;;;25.20;1.00;;;;;;5027773;28;20200;-59
2023/04/22 09:38:11;;;;;;;3.33;2.25;;;24.60;1.00;;;;;;5022081;28;20290;-59
2023/04/22 09:40:42;;;;;;;2.92;1.73;;;23.70;1.00;;;;;;5020897;28;20209;-58
2023/04/22 09:43:10;;;;;;;2.05;1.85;;;24.40;1.00;;;;;;5022807;28;20730;-59
2023/04/22 09:45:38;;;;;;;3.78;1.95;;;24.80;1.00;;;;;;5025546;28;20196;-59
2023/04/22 09:48:17;;;;;;;3.60;1.70;;;25.80;1.00;;;;;;5007384;28;20334;-59
2023/04/22 09:50:46;;;;;;;4.13;2.03;;;25.10;1.00;;;;;;5020552;28;20419;-59
2023/04/22 09:53:18;;;;;;;3.67;2.28;;;24.80;1.00;;;;;;4993383;28;20343;-59
2023/04/22 09:55:51;;;;;;;3.60;1.60;;;24.30;1.00;;;;;;5014931;28;20680;-59
2023/04/22 09:58:22;;;;;;;2.63;2.05;;;24.90;1.00;;;;;;5004952;28;20525;-59
2023/04/22 10:00:52;;;;;;;3.70;1.80;;;24.70;1.00;;;;;;5021088;28;20208;-59
2023/04/22 10:03:19;;;;;;;5.75;1.90;;;24.50;1.00;;;;;;5023262;28;20231;-58
2023/04/22 10:05:47;;;;;;;2.13;1.85;;;24.20;1.00;;;;;;5010972;28;20181;-60
2023/04/22 10:08:15;;;;;;;3.30;1.60;;;24.50;1.00;;;;;;4988273;28;20204;-59
2023/04/22 10:10:44;;;;;;;2.65;1.80;;;24.70;1.00;;;;;;5002678;28;20208;-58
2023/04/22 10:13:11;;;;;;;2.22;1.52;;;24.70;1.00;;;;;;5010787;28;20268;-59
2023/04/22 10:15:47;;;;;;;3.03;1.60;;;24.00;1.00;;;;;;5002868;28;20201;-58
2023/04/22 10:18:20;;;;;;;2.60;1.90;;;24.80;1.00;;;;;;5004859;28;20185;-59
2023/04/22 10:20:48;;;;;;;2.40;1.95;;;25.60;1.00;;;;;;5005729;28;20291;-59
2023/04/22 10:23:20;;;;;;;2.35;1.85;;;24.60;1.00;;;;;;5005497;28;20271;-59
2023/04/22 10:25:51;;;;;;;3.47;2.03;;;25.00;1.00;;;;;;5010888;28;20259;-59
2023/04/22 10:28:26;;;;;;;2.97;1.80;;;25.40;1.00;;;;;;4988676;28;20217;-59
2023/04/22 10:30:53;;;;;;;4.03;1.88;;;25.20;1.00;;;;;;4988972;28;20548;-62
2023/04/22 10:33:20;;;;;;;5.43;2.47;;;25.00;1.00;;;;;;5010075;28;20660;-59
2023/04/22 10:36:07;;;;;;;3.67;1.77;;;25.20;1.00;;;;;;5008054;28;20312;-60
2023/04/22 10:38:54;;;;;;;3.30;1.80;;;25.30;1.00;;;;;;4988862;28;20232;-59
2023/04/22 10:41:32;;;;;;;4.03;1.85;;;24.30;1.00;;;;;;4995084;28;20287;-59
2023/04/22 10:44:04;;;;;;;2.58;1.70;;;24.80;1.00;;;;;;5006324;28;20193;-61
2023/04/22 10:46:31;;;;;;;3.75;1.70;;;25.70;1.00;;;;;;5002043;28;20184;-59
2023/04/22 10:49:05;;;;;;;4.35;1.63;;;24.90;1.00;;;;;;4993981;28;20193;-60
2023/04/22 10:51:40;;;;;;;2.38;1.80;;;25.50;1.00;;;;;;5002809;28;20218;-61
2023/04/22 10:54:27;;;;;;;2.33;1.80;;;24.90;1.00;;;;;;4985542;28;20207;-59
2023/04/22 10:57:05;;;;;;;7.40;1.83;;;24.60;1.00;;;;;;4962889;28;20240;-60
2023/04/22 10:59:40;;;;;;;4.20;1.83;;;24.50;1.00;;;;;;4987016;28;21067;-60
2023/04/22 11:02:08;;;;;;;2.17;1.98;;;24.80;1.00;;;;;;5012892;28;20296;-62
2023/04/22 11:04:36;;;;;;;3.50;1.80;;;24.60;1.00;;;;;;5023148;28;20282;-60
2023/04/22 11:07:14;;;;;;;1.90;1.70;;;24.60;1.00;;;;;;5030369;28;20196;-60
2023/04/22 11:09:46;;;;;;;5.35;2.00;;;24.80;1.00;;;;;;5033794;28;20196;-59
2023/04/22 11:12:34;;;;;;;3.30;2.10;;;24.80;1.00;;;;;;5028695;28;20262;-60
2023/04/22 11:15:06;;;;;;;2.13;1.77;;;26.10;1.00;;;;;;5008718;28;20234;-61
2023/04/22 11:17:34;;;;;;;2.88;2.20;;;25.50;1.00;;;;;;5022505;28;20220;-60
2023/04/22 11:20:03;;;;;;;2.70;2.05;;;24.40;1.00;;;;;;5013611;28;20797;-58
2023/04/22 11:22:42;;;;;;;2.90;2.05;;;24.50;1.00;;;;;;5030280;28;20194;-60
2023/04/22 11:25:10;;;;;;;5.65;1.77;;;25.00;1.00;;;;;;5011580;28;20188;-60
2023/04/22 11:27:42;;;;;;;2.65;1.70;;;25.30;1.00;;;;;;5003614;28;20877;-60
2023/04/22 11:30:18;;;;;;;2.25;1.65;;;25.00;1.00;;;;;;5032719;28;20315;-61
2023/04/22 11:32:50;;;;;;;3.90;1.90;;;25.60;1.00;;;;;;5028750;28;20278;-62
2023/04/22 11:35:26;;;;;;;5.70;1.75;;;25.20;1.00;;;;;;5024522;28;20196;-61
2023/04/22 11:37:55;;;;;;;4.85;1.88;;;24.50;1.00;;;;;;5028757;28;20223;-60
2023/04/22 11:40:37;;;;;;;2.13;1.63;;;24.50;1.00;;;;;;5014609;28;20249;-59
2023/04/22 11:43:08;;;;;;;3.78;1.73;;;24.50;1.00;;;;;;5013537;28;20246;-60
2023/04/22 11:45:37;;;;;;;4.78;1.73;;;24.20;1.00;;;;;;4996736;28;20203;-60
2023/04/22 11:48:06;;;;;;;3.45;2.05;;;24.10;1.00;;;;;;5019606;28;20344;-60
2023/04/22 11:50:35;;;;;;;9.52;2.17;;;24.80;1.00;;;;;;5033431;28;20208;-60
2023/04/22 11:53:19;;;;;;;2.38;1.60;;;24.90;1.00;;;;;;5016674;28;20772;-60
2023/04/22 11:55:52;;;;;;;3.10;1.85;;;25.80;1.00;;;;;;5016021;28;20200;-60
2023/04/22 11:58:26;;;;;;;3.70;1.92;;;24.40;1.00;;;;;;5032242;28;20192;-59
2023/04/22 12:00:56;;;;;;;2.08;1.70;;;23.30;1.00;;;;;;5028610;28;20238;-60
2023/04/22 12:03:28;;;;;;;3.40;2.10;;;23.00;1.00;;;;;;5029090;28;20690;-60
2023/04/22 12:06:00;;;;;;;1.98;1.70;;;23.20;1.00;;;;;;5022116;28;20656;-60
2023/04/22 12:08:42;;;;;;;4.75;2.00;;;23.40;1.00;;;;;;5019012;28;20218;-60
2023/04/22 12:11:10;;;;;;;3.65;2.00;;;23.70;1.00;;;;;;5027845;28;20303;-59
2023/04/22 12:13:37;;;;;;;2.58;2.00;;;23.40;1.00;;;;;;5011185;28;20204;-59
2023/04/22 12:16:13;;;;;;;3.60;2.00;;;23.70;1.00;;;;;;5020147;28;20215;-58
2023/04/22 12:18:50;;;;;;;3.35;1.83;;;23.70;1.00;;;;;;5027084;28;20195;-59
2023/04/22 12:21:27;;;;;;;3.13;1.70;;;23.90;1.00;;;;;;5024477;28;20662;-59
2023/04/22 12:23:59;;;;;;;3.03;1.80;;;24.10;1.00;;;;;;5014784;28;20184;-59
2023/04/22 12:26:27;;;;;;;4.03;1.92;;;24.70;1.00;;;;;;5030566;28;20256;-60
2023/04/22 12:28:56;;;;;;;2.85;2.00;;;23.80;1.00;;;;;;5027658;28;20259;-59
2023/04/22 12:31:24;;;;;;;4.10;1.88;;;24.00;1.00;;;;;;5037750;28;20195;-59
2023/04/22 12:33:52;;;;;;;3.42;1.92;;;24.40;1.00;;;;;;5012950;28;20200;-59
2023/04/22 12:36:20;;;;;;;3.90;2.50;;;24.40;1.00;;;;;;5013909;28;20216;-59
2023/04/22 12:38:47;;;;;;;4.72;1.95;;;23.40;1.00;;;;;;5002168;28;20199;-60
2023/04/22 12:41:15;;;;;;;2.78;1.90;;;23.30;1.00;;;;;;5028208;28;20204;-59
2023/04/22 12:43:42;;;;;;;3.75;2.00;;;23.30;1.00;;;;;;5029432;28;20196;-64
2023/04/22 12:46:09;;;;;;;4.40;1.85;;;23.70;1.00;;;;;;5020586;28;20188;-60
2023/04/22 12:48:36;;;;;;;2.47;1.73;;;23.60;1.00;;;;;;5011448;28;20267;-59
2023/04/22 12:51:05;;;;;;;7.15;2.53;;;23.40;1.00;;;;;;5039223;28;20274;-59
2023/04/22 12:53:32;;;;;;;3.83;2.30;;;23.30;1.00;;;;;;5020630;28;20192;-59
2023/04/22 12:56:00;;;;;;;4.97;1.73;;;23.30;1.00;;;;;;5011524;28;20694;-63
2023/04/22 12:58:27;;;;;;;3.03;1.88;;;23.10;1.00;;;;;;5027541;28;20230;-58
2023/04/22 13:00:54;;;;;;;4.03;1.80;;;23.10;1.00;;;;;;5009081;28;20295;-59
2023/04/22 13:03:21;;;;;;;3.65;1.88;;;23.60;1.00;;;;;;5028017;28;20239;-59